Terminal Aerodrome Forecast
Issued by NWS

Home | Current Version | Previous Version | Text Only | Print | Product List | Glossary Off
Versions: 1 2 3 4 5 6 7 8 9 10 11 12 13 14 15 16 17 18 19 20 21 22 23 24 25 26 27 28 29 30 31 32 33 34 35 36 37 38 39 40 41 42 43 44 45 46 47 48 49 50

000
FTUS43 KDDC 240725 AAA
TAFHYS
TAF AMD
KHYS 240725Z 2407/2506 03012KT P6SM VCTS OVC015CB
     FM240900 08015KT P6SM OVC012
     FM241500 13015G24KT P6SM OVC015
     FM241800 15016G24KT P6SM SCT025=

USA.gov is the U.S. government's official web portal to all federal, state and local government web resources and services.